sensor_id;sensor_type;location;lat;lon;timestamp;temperature;humidity
45115;DHT22;30877;43.706;10.780;2023-02-03T00:00:59;8.80;96.70
45115;DHT22;30877;43.706;10.780;2023-02-03T00:03:28;8.80;96.70
45115;DHT22;30877;43.706;10.780;2023-02-03T00:05:56;8.70;96.70
45115;DHT22;30877;43.706;10.780;2023-02-03T00:08:24;8.80;96.70
45115;DHT22;30877;43.706;10.780;2023-02-03T00:10:52;8.80;96.70
45115;DHT22;30877;43.706;10.780;2023-02-03T00:13:21;8.80;96.70
45115;DHT22;30877;43.706;10.780;2023-02-03T00:15:50;8.80;96.70
45115;DHT22;30877;43.706;10.780;2023-02-03T00:18:18;8.70;96.70
45115;DHT22;30877;43.706;10.780;2023-02-03T00:20:47;8.70;96.70
45115;DHT22;30877;43.706;10.780;2023-02-03T00:23:15;8.70;96.70
45115;DHT22;30877;43.706;10.780;2023-02-03T00:25:43;8.70;96.70
45115;DHT22;30877;43.706;10.780;2023-02-03T00:28:11;8.70;96.70
45115;DHT22;30877;43.706;10.780;2023-02-03T00:30:39;8.70;96.70
45115;DHT22;30877;43.706;10.780;2023-02-03T00:33:08;8.70;96.70
45115;DHT22;30877;43.706;10.780;2023-02-03T00:35:37;8.70;96.70
45115;DHT22;30877;43.706;10.780;2023-02-03T00:38:06;8.70;96.70
45115;DHT22;30877;43.706;10.780;2023-02-03T00:40:34;8.70;96.70
45115;DHT22;30877;43.706;10.780;2023-02-03T00:43:02;8.70;96.70
45115;DHT22;30877;43.706;10.780;2023-02-03T00:45:31;8.70;96.70
45115;DHT22;30877;43.706;10.780;2023-02-03T00:47:59;8.70;96.70
45115;DHT22;30877;43.706;10.780;2023-02-03T00:50:28;8.70;96.70
45115;DHT22;30877;43.706;10.780;2023-02-03T00:52:56;8.70;96.70
45115;DHT22;30877;43.706;10.780;2023-02-03T00:55:25;8.70;96.70
45115;DHT22;30877;43.706;10.780;2023-02-03T00:57:53;8.80;96.70
45115;DHT22;30877;43.706;10.780;2023-02-03T01:00:21;8.80;96.70
45115;DHT22;30877;43.706;10.780;2023-02-03T01:02:49;8.80;96.70
45115;DHT22;30877;43.706;10.780;2023-02-03T01:05:17;8.80;96.70
45115;DHT22;30877;43.706;10.780;2023-02-03T01:07:47;8.80;96.70
45115;DHT22;30877;43.706;10.780;2023-02-03T01:10:15;8.80;96.70
45115;DHT22;30877;43.706;10.780;2023-02-03T01:12:43;8.70;96.70
45115;DHT22;30877;43.706;10.780;2023-02-03T01:15:11;8.80;96.70
45115;DHT22;30877;43.706;10.780;2023-02-03T01:17:39;8.80;96.70
45115;DHT22;30877;43.706;10.780;2023-02-03T01:20:08;8.80;96.70
45115;DHT22;30877;43.706;10.780;2023-02-03T01:22:39;8.80;96.70
45115;DHT22;30877;43.706;10.780;2023-02-03T01:25:09;8.80;96.70
45115;DHT22;30877;43.706;10.780;2023-02-03T01:27:37;8.70;96.70
45115;DHT22;30877;43.706;10.780;2023-02-03T01:30:05;8.70;96.70
45115;DHT22;30877;43.706;10.780;2023-02-03T01:32:33;8.70;96.70
45115;DHT22;30877;43.706;10.780;2023-02-03T01:35:04;8.70;96.70
45115;DHT22;30877;43.706;10.780;2023-02-03T01:37:32;8.70;96.70
45115;DHT22;30877;43.706;10.780;2023-02-03T01:40:00;8.60;96.70
45115;DHT22;30877;43.706;10.780;2023-02-03T01:42:31;8.60;96.70
45115;DHT22;30877;43.706;10.780;2023-02-03T01:45:00;8.60;96.70
45115;DHT22;30877;43.706;10.780;2023-02-03T01:47:31;8.50;96.70
45115;DHT22;30877;43.706;10.780;2023-02-03T01:50:08;8.40;96.70
45115;DHT22;30877;43.706;10.780;2023-02-03T01:52:40;8.30;96.70
45115;DHT22;30877;43.706;10.780;2023-02-03T01:55:12;8.30;96.70
45115;DHT22;30877;43.706;10.780;2023-02-03T01:57:45;8.40;96.70
45115;DHT22;30877;43.706;10.780;2023-02-03T02:00:15;8.30;96.70
45115;DHT22;30877;43.706;10.780;2023-02-03T02:02:45;8.30;96.70
45115;DHT22;30877;43.706;10.780;2023-02-03T02:05:19;8.20;96.70
45115;DHT22;30877;43.706;10.780;2023-02-03T02:07:50;8.10;96.70
45115;DHT22;30877;43.706;10.780;2023-02-03T02:10:18;8.10;96.70
45115;DHT22;30877;43.706;10.780;2023-02-03T02:12:48;8.10;96.70
45115;DHT22;30877;43.706;10.780;2023-02-03T02:15:19;8.00;96.70
45115;DHT22;30877;43.706;10.780;2023-02-03T02:18:04;7.90;96.70
45115;DHT22;30877;43.706;10.780;2023-02-03T02:20:55;8.00;96.70
45115;DHT22;30877;43.706;10.780;2023-02-03T02:23:40;7.90;96.70
45115;DHT22;30877;43.706;10.780;2023-02-03T02:26:33;7.90;96.70
45115;DHT22;30877;43.706;10.780;2023-02-03T02:32:27;7.60;96.70
45115;DHT22;30877;43.706;10.780;2023-02-03T02:35:03;7.80;96.70
45115;DHT22;30877;43.706;10.780;2023-02-03T02:37:43;7.80;96.70
45115;DHT22;30877;43.706;10.780;2023-02-03T02:40:22;7.80;96.70
45115;DHT22;30877;43.706;10.780;2023-02-03T02:42:59;7.80;96.70
45115;DHT22;30877;43.706;10.780;2023-02-03T02:45:38;7.80;96.70
45115;DHT22;30877;43.706;10.780;2023-02-03T02:48:16;7.80;96.70
45115;DHT22;30877;43.706;10.780;2023-02-03T02:50:49;7.90;96.70
45115;DHT22;30877;43.706;10.780;2023-02-03T02:53:21;7.90;96.70
45115;DHT22;30877;43.706;10.780;2023-02-03T02:55:54;7.90;96.70
45115;DHT22;30877;43.706;10.780;2023-02-03T02:58:24;8.00;96.70
45115;DHT22;30877;43.706;10.780;2023-02-03T03:00:54;7.90;96.70
45115;DHT22;30877;43.706;10.780;2023-02-03T03:03:24;7.90;96.70
45115;DHT22;30877;43.706;10.780;2023-02-03T03:05:54;7.90;96.70
45115;DHT22;30877;43.706;10.780;2023-02-03T03:08:31;7.50;96.70
45115;DHT22;30877;43.706;10.780;2023-02-03T03:11:01;7.40;96.70
45115;DHT22;30877;43.706;10.780;2023-02-03T03:13:32;7.50;96.70
45115;DHT22;30877;43.706;10.780;2023-02-03T03:16:02;7.50;96.70
45115;DHT22;30877;43.706;10.780;2023-02-03T03:18:38;7.50;96.70
45115;DHT22;30877;43.706;10.780;2023-02-03T03:21:10;7.70;96.70
45115;DHT22;30877;43.706;10.780;2023-02-03T03:23:43;7.80;96.70
45115;DHT22;30877;43.706;10.780;2023-02-03T03:26:17;7.80;96.70
45115;DHT22;30877;43.706;10.780;2023-02-03T03:28:50;7.70;96.70
45115;DHT22;30877;43.706;10.780;2023-02-03T03:31:20;7.80;96.70
45115;DHT22;30877;43.706;10.780;2023-02-03T03:33:50;7.70;96.70
45115;DHT22;30877;43.706;10.780;2023-02-03T03:36:24;7.70;96.70
45115;DHT22;30877;43.706;10.780;2023-02-03T03:38:56;7.50;96.70
45115;DHT22;30877;43.706;10.780;2023-02-03T03:41:33;7.50;96.70
45115;DHT22;30877;43.706;10.780;2023-02-03T03:44:05;7.70;96.70
45115;DHT22;30877;43.706;10.780;2023-02-03T03:46:40;7.80;96.70
45115;DHT22;30877;43.706;10.780;2023-02-03T03:49:13;7.80;96.70
45115;DHT22;30877;43.706;10.780;2023-02-03T03:51:45;7.70;96.70
45115;DHT22;30877;43.706;10.780;2023-02-03T03:54:17;7.60;96.70
45115;DHT22;30877;43.706;10.780;2023-02-03T03:56:55;7.50;96.70
45115;DHT22;30877;43.706;10.780;2023-02-03T03:59:27;7.60;96.70
45115;DHT22;30877;43.706;10.780;2023-02-03T04:01:58;7.70;96.70
45115;DHT22;30877;43.706;10.780;2023-02-03T04:04:35;7.80;96.70
45115;DHT22;30877;43.706;10.780;2023-02-03T04:07:04;7.80;96.70
45115;DHT22;30877;43.706;10.780;2023-02-03T04:09:33;7.80;96.70
45115;DHT22;30877;43.706;10.780;2023-02-03T04:12:04;7.80;96.70
45115;DHT22;30877;43.706;10.780;2023-02-03T04:14:35;7.90;96.70
45115;DHT22;30877;43.706;10.780;2023-02-03T04:17:07;7.90;96.70
45115;DHT22;30877;43.706;10.780;2023-02-03T04:19:37;8.00;96.70
45115;DHT22;30877;43.706;10.780;2023-02-03T04:22:05;8.00;96.70
45115;DHT22;30877;43.706;10.780;2023-02-03T04:24:33;8.00;96.70
45115;DHT22;30877;43.706;10.780;2023-02-03T04:27:02;8.00;96.70
45115;DHT22;30877;43.706;10.780;2023-02-03T04:29:32;8.10;96.70
45115;DHT22;30877;43.706;10.780;2023-02-03T04:32:00;8.10;96.70
45115;DHT22;30877;43.706;10.780;2023-02-03T04:34:29;8.10;96.70
45115;DHT22;30877;43.706;10.780;2023-02-03T04:36:58;8.10;96.70
45115;DHT22;30877;43.706;10.780;2023-02-03T04:39:27;8.10;96.70
45115;DHT22;30877;43.706;10.780;2023-02-03T04:41:55;8.10;96.70
45115;DHT22;30877;43.706;10.780;2023-02-03T04:44:24;8.10;96.70
45115;DHT22;30877;43.706;10.780;2023-02-03T04:46:52;7.90;96.70
45115;DHT22;30877;43.706;10.780;2023-02-03T04:49:20;7.80;96.70
45115;DHT22;30877;43.706;10.780;2023-02-03T04:51:49;7.70;96.70
45115;DHT22;30877;43.706;10.780;2023-02-03T04:54:19;7.80;96.70
45115;DHT22;30877;43.706;10.780;2023-02-03T04:56:47;7.90;96.70
45115;DHT22;30877;43.706;10.780;2023-02-03T04:59:16;7.90;96.70
45115;DHT22;30877;43.706;10.780;2023-02-03T05:01:44;8.00;96.70
45115;DHT22;30877;43.706;10.780;2023-02-03T05:04:12;7.80;96.70
45115;DHT22;30877;43.706;10.780;2023-02-03T05:06:41;7.70;96.70
45115;DHT22;30877;43.706;10.780;2023-02-03T05:09:09;7.80;96.70
45115;DHT22;30877;43.706;10.780;2023-02-03T05:11:39;7.80;96.70
45115;DHT22;30877;43.706;10.780;2023-02-03T05:14:08;7.70;96.70
45115;DHT22;30877;43.706;10.780;2023-02-03T05:16:37;7.80;96.70
45115;DHT22;30877;43.706;10.780;2023-02-03T05:19:05;7.90;96.70
45115;DHT22;30877;43.706;10.780;2023-02-03T05:21:34;7.90;96.70
45115;DHT22;30877;43.706;10.780;2023-02-03T05:24:02;7.90;96.70
45115;DHT22;30877;43.706;10.780;2023-02-03T05:26:35;8.00;96.70
45115;DHT22;30877;43.706;10.780;2023-02-03T05:29:05;8.10;96.70
45115;DHT22;30877;43.706;10.780;2023-02-03T05:31:34;8.10;96.70
45115;DHT22;30877;43.706;10.780;2023-02-03T05:34:02;8.10;96.70
45115;DHT22;30877;43.706;10.780;2023-02-03T05:36:31;8.10;96.70
45115;DHT22;30877;43.706;10.780;2023-02-03T05:38:59;8.20;96.70
45115;DHT22;30877;43.706;10.780;2023-02-03T05:41:28;8.10;96.70
45115;DHT22;30877;43.706;10.780;2023-02-03T05:44:16;8.10;96.70
45115;DHT22;30877;43.706;10.780;2023-02-03T05:46:44;8.10;96.70
45115;DHT22;30877;43.706;10.780;2023-02-03T05:49:12;8.10;96.70
45115;DHT22;30877;43.706;10.780;2023-02-03T05:51:41;8.10;96.70
45115;DHT22;30877;43.706;10.780;2023-02-03T05:54:09;8.20;96.70
45115;DHT22;30877;43.706;10.780;2023-02-03T05:56:38;8.20;96.70
45115;DHT22;30877;43.706;10.780;2023-02-03T05:59:06;8.10;96.70
45115;DHT22;30877;43.706;10.780;2023-02-03T06:01:36;8.00;96.70
45115;DHT22;30877;43.706;10.780;2023-02-03T06:04:05;8.10;96.70
45115;DHT22;30877;43.706;10.780;2023-02-03T06:06:34;8.10;96.70
45115;DHT22;30877;43.706;10.780;2023-02-03T06:09:04;8.10;96.70
45115;DHT22;30877;43.706;10.780;2023-02-03T06:11:34;8.10;96.70
45115;DHT22;30877;43.706;10.780;2023-02-03T06:14:03;8.10;96.70
45115;DHT22;30877;43.706;10.780;2023-02-03T06:16:31;8.10;96.70
45115;DHT22;30877;43.706;10.780;2023-02-03T06:19:01;8.20;96.70
45115;DHT22;30877;43.706;10.780;2023-02-03T06:21:31;8.20;96.70
45115;DHT22;30877;43.706;10.780;2023-02-03T06:23:59;8.20;96.70
45115;DHT22;30877;43.706;10.780;2023-02-03T06:26:28;8.20;96.70
45115;DHT22;30877;43.706;10.780;2023-02-03T06:28:56;8.00;96.70
45115;DHT22;30877;43.706;10.780;2023-02-03T06:31:25;7.90;96.70
45115;DHT22;30877;43.706;10.780;2023-02-03T06:33:53;8.00;96.70
45115;DHT22;30877;43.706;10.780;2023-02-03T06:36:25;8.00;96.70
45115;DHT22;30877;43.706;10.780;2023-02-03T06:38:53;8.00;96.70
45115;DHT22;30877;43.706;10.780;2023-02-03T06:41:22;7.90;96.70
45115;DHT22;30877;43.706;10.780;2023-02-03T06:43:54;8.00;96.70
45115;DHT22;30877;43.706;10.780;2023-02-03T06:46:22;8.10;96.70
45115;DHT22;30877;43.706;10.780;2023-02-03T06:48:55;8.10;96.70
45115;DHT22;30877;43.706;10.780;2023-02-03T06:51:24;8.10;96.70
45115;DHT22;30877;43.706;10.780;2023-02-03T06:53:53;8.00;96.70
45115;DHT22;30877;43.706;10.780;2023-02-03T06:56:21;7.90;96.70
45115;DHT22;30877;43.706;10.780;2023-02-03T06:58:49;8.00;96.70
45115;DHT22;30877;43.706;10.780;2023-02-03T07:01:18;7.90;96.70
45115;DHT22;30877;43.706;10.780;2023-02-03T07:03:46;7.80;96.70
45115;DHT22;30877;43.706;10.780;2023-02-03T07:06:14;7.80;96.70
45115;DHT22;30877;43.706;10.780;2023-02-03T07:08:44;7.90;96.70
45115;DHT22;30877;43.706;10.780;2023-02-03T07:11:13;8.00;96.70
45115;DHT22;30877;43.706;10.780;2023-02-03T07:13:41;7.90;96.70
45115;DHT22;30877;43.706;10.780;2023-02-03T07:16:09;8.00;96.70
45115;DHT22;30877;43.706;10.780;2023-02-03T07:18:37;8.10;96.70
45115;DHT22;30877;43.706;10.780;2023-02-03T07:21:15;8.10;96.70
45115;DHT22;30877;43.706;10.780;2023-02-03T07:23:48;8.10;96.70
45115;DHT22;30877;43.706;10.780;2023-02-03T07:26:17;8.20;96.70
45115;DHT22;30877;43.706;10.780;2023-02-03T07:28:45;8.20;96.70
45115;DHT22;30877;43.706;10.780;2023-02-03T07:31:14;8.20;96.70
45115;DHT22;30877;43.706;10.780;2023-02-03T07:33:42;8.20;96.70
45115;DHT22;30877;43.706;10.780;2023-02-03T07:36:11;8.30;96.70
45115;DHT22;30877;43.706;10.780;2023-02-03T07:38:39;8.40;96.70
45115;DHT22;30877;43.706;10.780;2023-02-03T07:41:08;8.40;96.70
45115;DHT22;30877;43.706;10.780;2023-02-03T07:43:38;8.50;96.70
45115;DHT22;30877;43.706;10.780;2023-02-03T07:46:06;8.50;96.70
45115;DHT22;30877;43.706;10.780;2023-02-03T07:48:36;8.50;96.70
45115;DHT22;30877;43.706;10.780;2023-02-03T07:51:05;8.60;96.70
45115;DHT22;30877;43.706;10.780;2023-02-03T07:53:33;8.60;96.70
45115;DHT22;30877;43.706;10.780;2023-02-03T07:56:02;8.60;96.70
45115;DHT22;30877;43.706;10.780;2023-02-03T07:58:32;8.70;96.70
45115;DHT22;30877;43.706;10.780;2023-02-03T08:01:01;8.80;96.70
45115;DHT22;30877;43.706;10.780;2023-02-03T08:03:36;8.90;96.70
45115;DHT22;30877;43.706;10.780;2023-02-03T08:06:04;8.90;96.70
45115;DHT22;30877;43.706;10.780;2023-02-03T08:08:33;9.00;96.70
45115;DHT22;30877;43.706;10.780;2023-02-03T08:11:01;9.00;96.70
45115;DHT22;30877;43.706;10.780;2023-02-03T08:13:29;9.00;96.70
45115;DHT22;30877;43.706;10.780;2023-02-03T08:15:59;9.00;96.70
45115;DHT22;30877;43.706;10.780;2023-02-03T08:18:28;9.10;96.70
45115;DHT22;30877;43.706;10.780;2023-02-03T08:20:59;9.10;96.70
45115;DHT22;30877;43.706;10.780;2023-02-03T08:23:27;9.20;96.70
45115;DHT22;30877;43.706;10.780;2023-02-03T08:25:55;9.20;96.70
45115;DHT22;30877;43.706;10.780;2023-02-03T08:28:24;9.20;96.70
45115;DHT22;30877;43.706;10.780;2023-02-03T08:30:52;9.20;96.70
45115;DHT22;30877;43.706;10.780;2023-02-03T08:33:22;9.10;96.70
45115;DHT22;30877;43.706;10.780;2023-02-03T08:35:50;9.10;96.70
45115;DHT22;30877;43.706;10.780;2023-02-03T08:38:18;9.10;96.70
45115;DHT22;30877;43.706;10.780;2023-02-03T08:40:48;9.20;96.70
45115;DHT22;30877;43.706;10.780;2023-02-03T08:43:16;9.20;96.70
45115;DHT22;30877;43.706;10.780;2023-02-03T08:45:45;9.30;96.70
45115;DHT22;30877;43.706;10.780;2023-02-03T08:48:13;9.30;96.70
45115;DHT22;30877;43.706;10.780;2023-02-03T08:50:43;9.30;96.70
45115;DHT22;30877;43.706;10.780;2023-02-03T08:53:19;9.40;96.70
45115;DHT22;30877;43.706;10.780;2023-02-03T08:55:47;9.40;96.70
45115;DHT22;30877;43.706;10.780;2023-02-03T08:58:15;9.50;96.70
45115;DHT22;30877;43.706;10.780;2023-02-03T09:00:43;9.50;96.70
45115;DHT22;30877;43.706;10.780;2023-02-03T09:03:12;9.50;96.70
45115;DHT22;30877;43.706;10.780;2023-02-03T09:05:42;9.50;96.70
45115;DHT22;30877;43.706;10.780;2023-02-03T09:08:10;9.60;96.70
45115;DHT22;30877;43.706;10.780;2023-02-03T09:10:38;9.60;96.70
45115;DHT22;30877;43.706;10.780;2023-02-03T09:13:06;9.60;96.70
45115;DHT22;30877;43.706;10.780;2023-02-03T09:15:35;9.60;96.70
45115;DHT22;30877;43.706;10.780;2023-02-03T09:18:04;9.70;96.70
45115;DHT22;30877;43.706;10.780;2023-02-03T09:20:32;9.70;96.70
45115;DHT22;30877;43.706;10.780;2023-02-03T09:23:02;9.80;96.70
45115;DHT22;30877;43.706;10.780;2023-02-03T09:25:31;9.80;96.70
45115;DHT22;30877;43.706;10.780;2023-02-03T09:28:00;9.90;96.70
45115;DHT22;30877;43.706;10.780;2023-02-03T09:30:29;9.90;96.70
45115;DHT22;30877;43.706;10.780;2023-02-03T09:32:58;9.90;96.70
45115;DHT22;30877;43.706;10.780;2023-02-03T09:35:26;10.00;96.70
45115;DHT22;30877;43.706;10.780;2023-02-03T09:37:57;10.10;96.70
45115;DHT22;30877;43.706;10.780;2023-02-03T09:40:32;10.10;96.70
45115;DHT22;30877;43.706;10.780;2023-02-03T09:43:10;10.20;96.70
45115;DHT22;30877;43.706;10.780;2023-02-03T09:45:39;10.20;96.70
45115;DHT22;30877;43.706;10.780;2023-02-03T09:48:12;10.20;96.70
45115;DHT22;30877;43.706;10.780;2023-02-03T09:50:43;10.30;96.70
45115;DHT22;30877;43.706;10.780;2023-02-03T09:53:22;10.40;96.70
45115;DHT22;30877;43.706;10.780;2023-02-03T09:55:54;10.50;96.70
45115;DHT22;30877;43.706;10.780;2023-02-03T09:58:23;10.50;96.70
45115;DHT22;30877;43.706;10.780;2023-02-03T10:00:52;10.60;96.70
45115;DHT22;30877;43.706;10.780;2023-02-03T10:03:27;10.70;96.70
45115;DHT22;30877;43.706;10.780;2023-02-03T10:06:18;10.70;96.70
45115;DHT22;30877;43.706;10.780;2023-02-03T10:09:18;10.70;96.70
45115;DHT22;30877;43.706;10.780;2023-02-03T10:12:11;10.70;96.70
45115;DHT22;30877;43.706;10.780;2023-02-03T10:14:56;10.70;96.70
45115;DHT22;30877;43.706;10.780;2023-02-03T10:17:31;10.90;96.70
45115;DHT22;30877;43.706;10.780;2023-02-03T10:20:03;11.10;96.70
45115;DHT22;30877;43.706;10.780;2023-02-03T10:22:39;11.20;96.70
45115;DHT22;30877;43.706;10.780;2023-02-03T10:25:16;11.30;96.70
45115;DHT22;30877;43.706;10.780;2023-02-03T10:27:49;11.50;96.70
45115;DHT22;30877;43.706;10.780;2023-02-03T10:30:20;11.50;96.70
45115;DHT22;30877;43.706;10.780;2023-02-03T10:32:52;11.60;96.70
45115;DHT22;30877;43.706;10.780;2023-02-03T10:35:23;11.70;96.70
45115;DHT22;30877;43.706;10.780;2023-02-03T10:37:56;11.80;96.70
45115;DHT22;30877;43.706;10.780;2023-02-03T10:40:26;11.90;96.70
45115;DHT22;30877;43.706;10.780;2023-02-03T10:42:58;12.00;96.70
45115;DHT22;30877;43.706;10.780;2023-02-03T10:45:44;12.10;96.70
45115;DHT22;30877;43.706;10.780;2023-02-03T10:48:15;12.10;96.70
45115;DHT22;30877;43.706;10.780;2023-02-03T10:50:47;12.20;96.70
45115;DHT22;30877;43.706;10.780;2023-02-03T10:53:22;12.30;96.70
45115;DHT22;30877;43.706;10.780;2023-02-03T10:56:00;12.20;96.70
45115;DHT22;30877;43.706;10.780;2023-02-03T10:58:31;12.40;96.70
45115;DHT22;30877;43.706;10.780;2023-02-03T11:01:06;12.70;96.70
45115;DHT22;30877;43.706;10.780;2023-02-03T11:03:36;12.80;96.70
45115;DHT22;30877;43.706;10.780;2023-02-03T11:06:07;12.80;96.70
45115;DHT22;30877;43.706;10.780;2023-02-03T11:08:37;12.80;96.70
45115;DHT22;30877;43.706;10.780;2023-02-03T11:11:06;12.80;96.70
45115;DHT22;30877;43.706;10.780;2023-02-03T11:13:36;12.80;96.70
45115;DHT22;30877;43.706;10.780;2023-02-03T11:16:05;12.80;96.70
45115;DHT22;30877;43.706;10.780;2023-02-03T11:21:23;12.80;96.70
45115;DHT22;30877;43.706;10.780;2023-02-03T11:23:55;12.80;96.70
45115;DHT22;30877;43.706;10.780;2023-02-03T11:26:26;13.00;96.70
45115;DHT22;30877;43.706;10.780;2023-02-03T11:28:59;13.00;96.70
45115;DHT22;30877;43.706;10.780;2023-02-03T11:31:28;13.00;96.70
45115;DHT22;30877;43.706;10.780;2023-02-03T11:34:00;13.10;96.70
45115;DHT22;30877;43.706;10.780;2023-02-03T11:36:30;13.20;96.70
45115;DHT22;30877;43.706;10.780;2023-02-03T11:42:20;13.10;96.70
45115;DHT22;30877;43.706;10.780;2023-02-03T11:44:50;13.20;96.70
45115;DHT22;30877;43.706;10.780;2023-02-03T11:47:19;13.20;96.70
45115;DHT22;30877;43.706;10.780;2023-02-03T11:50:15;13.50;96.70
45115;DHT22;30877;43.706;10.780;2023-02-03T11:56:13;14.10;96.70
45115;DHT22;30877;43.706;10.780;2023-02-03T11:59:03;14.10;96.70
45115;DHT22;30877;43.706;10.780;2023-02-03T12:02:01;14.30;96.70
45115;DHT22;30877;43.706;10.780;2023-02-03T12:04:50;14.50;96.70
45115;DHT22;30877;43.706;10.780;2023-02-03T12:07:43;14.50;96.70
45115;DHT22;30877;43.706;10.780;2023-02-03T12:10:29;14.70;96.70
45115;DHT22;30877;43.706;10.780;2023-02-03T12:13:05;14.60;96.70
45115;DHT22;30877;43.706;10.780;2023-02-03T12:15:43;14.60;96.70
45115;DHT22;30877;43.706;10.780;2023-02-03T12:18:30;14.50;96.70
45115;DHT22;30877;43.706;10.780;2023-02-03T12:21:13;14.40;96.70
45115;DHT22;30877;43.706;10.780;2023-02-03T12:23:52;14.40;96.70
45115;DHT22;30877;43.706;10.780;2023-02-03T12:26:24;14.30;96.70
45115;DHT22;30877;43.706;10.780;2023-02-03T12:29:00;14.20;96.70
45115;DHT22;30877;43.706;10.780;2023-02-03T12:31:35;14.30;96.70
45115;DHT22;30877;43.706;10.780;2023-02-03T12:34:14;14.60;96.70
45115;DHT22;30877;43.706;10.780;2023-02-03T12:36:46;14.90;96.70
45115;DHT22;30877;43.706;10.780;2023-02-03T12:39:22;15.10;96.70
45115;DHT22;30877;43.706;10.780;2023-02-03T12:41:59;15.10;96.70
45115;DHT22;30877;43.706;10.780;2023-02-03T12:44:32;15.30;96.70
45115;DHT22;30877;43.706;10.780;2023-02-03T12:47:05;15.40;96.70
45115;DHT22;30877;43.706;10.780;2023-02-03T12:49:39;15.40;96.70
45115;DHT22;30877;43.706;10.780;2023-02-03T12:52:16;15.20;96.70
45115;DHT22;30877;43.706;10.780;2023-02-03T12:54:49;15.00;96.70
45115;DHT22;30877;43.706;10.780;2023-02-03T12:57:23;14.80;96.70
45115;DHT22;30877;43.706;10.780;2023-02-03T13:00:05;14.60;96.70
45115;DHT22;30877;43.706;10.780;2023-02-03T13:02:43;14.60;96.70
45115;DHT22;30877;43.706;10.780;2023-02-03T13:05:21;14.60;96.70
45115;DHT22;30877;43.706;10.780;2023-02-03T13:07:57;14.40;96.70
45115;DHT22;30877;43.706;10.780;2023-02-03T13:10:32;14.30;96.70
45115;DHT22;30877;43.706;10.780;2023-02-03T13:13:02;14.10;96.70
45115;DHT22;30877;43.706;10.780;2023-02-03T13:15:37;14.00;96.70
45115;DHT22;30877;43.706;10.780;2023-02-03T13:18:13;14.00;96.70
45115;DHT22;30877;43.706;10.780;2023-02-03T13:20:45;14.00;96.70
45115;DHT22;30877;43.706;10.780;2023-02-03T13:23:14;14.10;96.70
45115;DHT22;30877;43.706;10.780;2023-02-03T13:25:50;14.40;96.70
45115;DHT22;30877;43.706;10.780;2023-02-03T13:28:32;14.50;96.70
45115;DHT22;30877;43.706;10.780;2023-02-03T13:31:18;14.40;96.70
45115;DHT22;30877;43.706;10.780;2023-02-03T13:34:05;14.20;96.70
45115;DHT22;30877;43.706;10.780;2023-02-03T13:39:45;14.50;96.70
45115;DHT22;30877;43.706;10.780;2023-02-03T13:42:23;14.70;96.70
45115;DHT22;30877;43.706;10.780;2023-02-03T13:44:54;14.70;96.70
45115;DHT22;30877;43.706;10.780;2023-02-03T13:47:26;14.70;96.70
45115;DHT22;30877;43.706;10.780;2023-02-03T13:49:58;14.70;96.70
45115;DHT22;30877;43.706;10.780;2023-02-03T13:52:33;14.70;96.70
45115;DHT22;30877;43.706;10.780;2023-02-03T13:55:03;14.60;96.70
45115;DHT22;30877;43.706;10.780;2023-02-03T13:57:33;14.50;96.70
45115;DHT22;30877;43.706;10.780;2023-02-03T14:00:04;14.70;96.70
45115;DHT22;30877;43.706;10.780;2023-02-03T14:02:44;14.60;96.70
45115;DHT22;30877;43.706;10.780;2023-02-03T14:05:37;14.50;96.70
45115;DHT22;30877;43.706;10.780;2023-02-03T14:11:47;14.70;96.70
45115;DHT22;30877;43.706;10.780;2023-02-03T14:14:44;14.70;96.70
45115;DHT22;30877;43.706;10.780;2023-02-03T14:20:49;14.30;96.70
45115;DHT22;30877;43.706;10.780;2023-02-03T14:23:26;14.50;96.70
45115;DHT22;30877;43.706;10.780;2023-02-03T14:25:58;14.50;96.70
45115;DHT22;30877;43.706;10.780;2023-02-03T14:28:37;14.40;96.70
45115;DHT22;30877;43.706;10.780;2023-02-03T14:31:15;14.20;96.70
45115;DHT22;30877;43.706;10.780;2023-02-03T14:33:50;14.10;96.70
45115;DHT22;30877;43.706;10.780;2023-02-03T14:36:36;14.10;96.70
45115;DHT22;30877;43.706;10.780;2023-02-03T14:39:37;14.20;96.70
45115;DHT22;30877;43.706;10.780;2023-02-03T14:42:15;14.30;96.70
45115;DHT22;30877;43.706;10.780;2023-02-03T14:44:54;14.30;96.70
45115;DHT22;30877;43.706;10.780;2023-02-03T14:47:39;14.20;96.70
45115;DHT22;30877;43.706;10.780;2023-02-03T14:50:26;14.30;96.70
45115;DHT22;30877;43.706;10.780;2023-02-03T14:53:09;14.30;96.70
45115;DHT22;30877;43.706;10.780;2023-02-03T14:55:49;14.20;96.70
45115;DHT22;30877;43.706;10.780;2023-02-03T14:58:27;14.30;96.70
45115;DHT22;30877;43.706;10.780;2023-02-03T15:01:04;14.40;96.70
45115;DHT22;30877;43.706;10.780;2023-02-03T15:03:35;14.30;96.70
45115;DHT22;30877;43.706;10.780;2023-02-03T15:06:38;14.30;96.70
45115;DHT22;30877;43.706;10.780;2023-02-03T15:09:18;14.20;96.70
45115;DHT22;30877;43.706;10.780;2023-02-03T15:11:50;14.20;96.70
45115;DHT22;30877;43.706;10.780;2023-02-03T15:14:23;14.10;96.70
45115;DHT22;30877;43.706;10.780;2023-02-03T15:16:59;14.10;96.70
45115;DHT22;30877;43.706;10.780;2023-02-03T15:19:31;14.10;96.70
45115;DHT22;30877;43.706;10.780;2023-02-03T15:21:59;14.10;96.70
45115;DHT22;30877;43.706;10.780;2023-02-03T15:24:34;14.00;96.70
45115;DHT22;30877;43.706;10.780;2023-02-03T15:27:02;13.80;96.70
45115;DHT22;30877;43.706;10.780;2023-02-03T15:29:32;13.70;96.70
45115;DHT22;30877;43.706;10.780;2023-02-03T15:32:08;13.60;96.70
45115;DHT22;30877;43.706;10.780;2023-02-03T15:34:40;13.60;96.70
45115;DHT22;30877;43.706;10.780;2023-02-03T15:37:15;13.50;96.70
45115;DHT22;30877;43.706;10.780;2023-02-03T15:39:51;13.60;96.70
45115;DHT22;30877;43.706;10.780;2023-02-03T15:42:27;13.70;96.70
45115;DHT22;30877;43.706;10.780;2023-02-03T15:44:58;13.90;96.70
45115;DHT22;30877;43.706;10.780;2023-02-03T15:47:33;14.20;96.70
45115;DHT22;30877;43.706;10.780;2023-02-03T15:50:07;14.30;96.70
45115;DHT22;30877;43.706;10.780;2023-02-03T15:52:44;14.40;96.70
45115;DHT22;30877;43.706;10.780;2023-02-03T15:55:17;14.40;96.70
45115;DHT22;30877;43.706;10.780;2023-02-03T15:57:48;14.50;96.70
45115;DHT22;30877;43.706;10.780;2023-02-03T16:00:31;14.60;96.70
45115;DHT22;30877;43.706;10.780;2023-02-03T16:03:02;14.60;96.70
45115;DHT22;30877;43.706;10.780;2023-02-03T16:05:33;14.20;96.70
45115;DHT22;30877;43.706;10.780;2023-02-03T16:08:26;13.60;96.70
45115;DHT22;30877;43.706;10.780;2023-02-03T16:10:56;13.30;96.70
45115;DHT22;30877;43.706;10.780;2023-02-03T16:13:26;13.10;96.70
45115;DHT22;30877;43.706;10.780;2023-02-03T16:16:03;13.00;96.70
45115;DHT22;30877;43.706;10.780;2023-02-03T16:18:36;12.90;96.70
45115;DHT22;30877;43.706;10.780;2023-02-03T16:21:05;12.70;96.70